Location:  
MeteoStar


Sort by weather type Sort by elevation Sort by visibility Sort from west to east north Sort from north to south Alphabetically Sort from strongest wind speed Sort from lowest to highest pressure Sort from highest to lowest dew point temperature Sort coolest temperatures to warmest Sort warm temperatures to coolest
 Metric

Current Observations for United Kingdom sorted from lowest visibility

Liscombe01:00ZNot Avail.40 400.121007S 5 361141
Dunkeswell Aerodrome01:00ZFog42 420.751007.2S 7 38826
Lake Vyrnwy01:00ZNot Avail.33 331.871007.5SE 6 271181
Bristol / Lulsgate 01:20ZLight Rain41 412.251007.5SE 10 35620
Liverpool Airport 01:20ZCloudy39 342.251007.2SE 10 3285
Luton Airport 01:20ZClear34 302.251010.5SSE 8 27524
Bournemouth Airport01:00ZRain43 402.751009.2S 11 3736
Lough Fea01:00ZMist40 402.751003.7SE 2 40738
Boscombe Down01:00ZLight Rain39 3831009.9SE 12 32406
Strathallan01:00ZLight Drizzle33 3331008.5ENE 3 33114
Glen Ogle01:00ZNot Avail.29 293SE 8 211850
Sennybridge01:00ZClear38 3831007SE 11 311007
Larkhill01:00ZNot Avail.38 3731009.7SE 7 33433
Birmingham / Airport01:20ZRain36 3441009.3SSE 9 29324
Manchester Airport01:20ZCloudy37 3241008.3SSE 6 32226
Yeovilton01:00ZShowers43 4241007.9SE 11 3775
Cardiff-Wales Airport01:20ZCloudy43 4341006.2ESE 10 37219
Glasgow Airport01:20ZLight Rain36 3441007.1ENE 8 3026
Leuchars01:00ZClear33 3141008.2W 1 3339
Leeming01:00ZLight Rain and Snow34 3341009.7SE 8 27131
Spadeadam01:00ZMist31 3041008.5ENE 5 26935
Shobdon01:00ZNot Avail.37 3641008.2E 4 34324
Milford Haven01:00ZNot Avail.45 4441004.9S 8 41144
Mumbles01:00ZNot Avail.45 4441006.7ESE 15 38114
Aberporth01:00ZLight Rain42 4251004.9SSE 13 35436
Middle Wallop01:00ZNot Avail.39 3851010SE 10 32298
Aboyne01:00ZMist33 3251008.7NNW 2 33459
Redesdale01:00ZNot Avail.33 3151008.9SE 7 27692
Nottingham Weather Centre01:00ZLight Rain36 3351010.5SSE 7 30383
Edinburgh Airport01:20ZCloudy36 3261007.2N 3 36134
Prestwick Airport01:50ZMostly Cloudy39 3661006.2ESE 6 3565
Benbecula01:20ZCloudy41 3761005.1ESE 9 3519
Scatsa / Shetland Island01:20ZClear36 3261011.2SSE 11 2872
Machrihanish01:00ZNot Avail.43 4161004.5SE 15 3642
Exeter Airport01:20ZPartly Cloudy39 3961006.2CALM3998
Little Rissington01:00ZNot Avail.36 3361009.5SSE 12 28705
Belfast / Aldergrove Airport01:00ZNot Avail.43 4171003.7E 6 39265
Belfast / Harbour01:20ZMostly Cloudy43 4171003.1N 1 4316
Plymouth01:00ZClear44 4471007S 3 44164
Jersey Airport01:00ZNot Avail.41 3971009.9SSE 14 33275
Shoreham Airport01:00ZNot Avail.42 3371012SSE 15 Gusting to 25 346
London / Gatwick Airport01:20ZNot Avail.36 3071011.3ESE 5 32203
London City Airport01:20ZClear37 3071012.1E 6 3216
West Freugh01:00ZNot Avail.42 4071005.4ESE 18 Gusting to 26 3436
Boulmer01:00ZNot Avail.36 3371009.2S 9 2975
Benson01:00ZNot Avail.38 3471010.5SSE 11 31206
Manston01:00ZNot Avail.35 3171014.4SSE 11 27180
Wattisham01:00ZNot Avail.35 3271013.5SSE 8 28285
Fairford Royal Air Force Base01:31ZCloudy41 3471009.0SE 12 34285
Inverbervie01:00ZLight Drizzle38 3571008.4S 14 Gusting to 25 30439
Charterhall01:00ZNot Avail.33 3171008.2ENE 1 33367
Eskdalemuir01:00ZMist33 3271008.4S 2 33793
Isle Of Portland01:00ZNot Avail.45 4371008.2S 20 Gusting to 28 37173
Saint Catherines Point01:00ZNot Avail.43 4171010SSE 11 Gusting to 21 3752
Linton-On-Ouse01:00ZNot Avail.36 3481010.2SSE 9 2952
Shoeburyness01:00ZNot Avail.38 3381013.5S 12 306
Glenanne01:00ZNot Avail.40 3881003.0SSW 3 40528
Marham01:00ZNot Avail.35 3291012.7SE 11 2775
Bingley01:00ZClear33 3391009.2SSE 6 27859
Aberdeen / Dyce01:00ZClear38 36101008.7SSE 8 32213
Inverness / Dalcross01:20ZClear23 21101007.1CALM2329
Lossiemouth01:00ZMostly Cloudy26 24101008.2SE 1 2642
Norwich Weather Centre01:20ZClear36 32101013.2SSE 7 3045
Stansted Airport01:20ZClear34 30101012.4SSE 10 26347
Church Lawford01:00ZLight Showers37 33101010.2SSE 6 32351
Thorney Island01:00ZLight Showers42 37101010.7SSE 16 Gusting to 25 3413
Tiree01:00ZNot Avail.41 38111004.7ESE 19 Gusting to 27 3239
Shap01:00ZNot Avail.34 32111008.7S 6 29816
Loftus Samos01:00ZClear34 32111009.5S 21 Gusting to 28 22190
Fylingdales01:00ZNot Avail.32 3211SSE 15 22859
Bridlington Mrsc01:00ZNot Avail.37 35111011.2S 20 Gusting to 29 2749
Guernsey Airport01:00ZCloudy44 42121009.5S 15 37334
Kinloss01:00ZNot Avail.29 27121008.2ESE 6 2322
Brize Norton01:00ZLight Rain39 35121010SSE 7 34288
Odiham01:00ZClear40 34121010.7SSE 11 33403
Aberdaron01:00ZNot Avail.43 41121005.7SSE 18 Gusting to 25 35311
Kirkwall Airport01:00ZClear40 35131009SSE 12 3368
Sumburgh Cape 01:20ZPartly Cloudy39 34131011.1CALM3916
Waddington01:00ZNot Avail.36 32131011.2SSE 13 27223
Cranwell01:00ZNot Avail.35 31131011.2SSE 15 25219
Drumalbin01:00ZNot Avail.35 33131007.2ESE 3 35803
Portglenone01:00ZNot Avail.43 40131003.0E 7 39209
Shawbury01:00ZNot Avail.37 34141008.2SSE 10 30249
Wainfleet01:00ZNot Avail.38 34141012.2SSE 16 299
Culdrose01:00ZNot Avail.46 45151006.5SW 11 41255
London / Heathrow Airport01:00ZNot Avail.36 30151011.7SE 7 3078
Southend-On-Sea 01:50ZNot Avail.37 32151013.2SSE 12 2949
Lydd Airport 01:20ZMostly Cloudy39 34151014.1S 15 319
Blackpool Airport01:00ZNot Avail.37 3315SE 15 2832
Humberside01:20ZMostly Cloudy39 32151011.2SSE 15 31101
Isle Of Man / Ronaldsway Airport01:00ZCloudy44 42151005.2SE 13 3855
Newcastle 01:20ZMostly Cloudy36 32151008.3S 7 30265
East Midlands01:20ZLight Rain36 32151009.3SSE 14 27308
Tain Range01:00ZNot Avail.26 24151008W 3 2613
Holbeach01:00ZNot Avail.36 33151012.2S 12 289
Aviemore01:00ZNot Avail.26 23151008.5NNW 1 26721
Cairngorm01:00ZNot Avail.22 2215S 13 104084
Cairnwell01:00ZNot Avail.29 2915SE 11 193061
Pershore01:00ZLight Rain39 36151009.2SSE 8 33104
Camborne01:00ZMostly Cloudy44 42151006.5S 4 42285
Herstmonceux01:00ZNot Avail.38 31151013.2S 8 32170
Castlederg01:00ZNot Avail.41 40151002.5E 3 41167
Ballypatrick Forest01:00ZNot Avail.43 42151004SSE 6 39511
Walney Island01:00ZNot Avail.38 34161007.5ESE 13 3049
Leeds And Bradford01:20ZMostly Cloudy34 32161008.7SSE 11 26682
Northolt01:00ZNot Avail.36 30161011.7SE 8 30124
Saint Bees Head01:00ZNot Avail.36 33161006.9SE 17 Gusting to 25 26406
Donna Nook01:00ZNot Avail.37 33161011.7SSE 13 2926
Hawarden01:00ZNot Avail.37 34171007.9SSE 11 2932
Baltasound01:00ZNot Avail.29 27171011.9W 1 2949
Weybourne01:00ZNot Avail.36 32171013.4SSE 10 2968
Chivenor01:00ZLight Rain43 41181006.5E 6 3926
Lyneham01:00ZNot Avail.38 36181009.2SSE 13 30475
Wittering01:00ZNot Avail.36 31181011SSE 12 28275
High Wicombe Hqstc01:00ZNot Avail.35 30181011.2SSE 9 28669
Farnborough01:00ZNot Avail.39 33191011.0SE 7 34213
Wick01:00ZNot Avail.40 35191008.2SSE 12 33127
Coningsby Royal Air Force Base01:00ZCloudy37 32201011.7SSE 10 3022
Fair Isle01:00ZLight Showers42 32201010.5SSE 15 34187
Sule Skerry01:00ZNot Avail.41 33201007.5SE 19 3252
Dundrennan01:00ZNot Avail.38 35201006.2SE 16 29374
Carlisle01:00ZNot Avail.37 32201007.5N 3791
Capel Curig01:00ZNot Avail.40 36201006S 15 Gusting to 30 32708
Rhyl01:00ZNot Avail.36 34201006.7SE 5 32252
Kenley01:00ZNot Avail.36 30201011.9S 10 29557
Langdon Bay01:00ZNot Avail.37 33201014.2S 16 Gusting to 26 28383
Stornoway01:00ZNot Avail.34 32251006.7NNW 3 3429
Lerwick01:00ZClear37 33251011.5SSE 5 33269
South Uist Range01:00ZNot Avail.41 37251005.2SE 14 3332
Aultbea01:00ZNot Avail.33 28251006.4E 3 3336
Keswick01:00ZShowers nearby37 32251008.0ESE 5 33265
Scilly; Saint MaryS01:00ZNot Avail.47 44301006.7WSW 13 41101
Valley01:00ZNot Avail.44 39301004.7SSE 15 373
Loch Glascanoch01:00ZNot Avail.22 20301009CALM22869
Altnaharra01:00ZNot Avail.21 19301008.0NNW 4 15265
Tulloch Bridge01:00ZNot Avail.35 31301008.2SSE 8 28777
Prestwick Rnas01:00ZNot Avail.39 34301006.0ESE 5 3585
Warcop Range01:00ZClear35 32301008.5SSE 7 29744
Great Dun Fell01:00ZNot Avail.27 2730S 13 162778
Crosby01:00ZNot Avail.38 34301007.4SE 13 3026
Trawscoed01:00ZLight Showers42 38301005.9SSE 2 42206
Bedford01:00ZNot Avail.35 30301011.5SSE 13 26278